sensor_id;sensor_type;location;lat;lon;timestamp;pressure;altitude;pressure_sealevel;temperature;humidity
60479;BME280;46321;48.398;11.754;2024-02-14T00:00:42;97089.16;;;0.95;nan
60479;BME280;46321;48.398;11.754;2024-02-14T00:03:09;97091.03;;;0.93;nan
60479;BME280;46321;48.398;11.754;2024-02-14T00:05:34;97093.94;;;0.88;nan
60479;BME280;46321;48.398;11.754;2024-02-14T00:07:59;97090.09;;;0.81;nan
60479;BME280;46321;48.398;11.754;2024-02-14T00:10:25;97101.13;;;0.84;nan
60479;BME280;46321;48.398;11.754;2024-02-14T00:12:50;97097.81;;;0.82;nan
60479;BME280;46321;48.398;11.754;2024-02-14T00:15:16;97095.19;;;0.82;nan
60479;BME280;46321;48.398;11.754;2024-02-14T00:17:41;97094.25;;;0.83;nan
60479;BME280;46321;48.398;11.754;2024-02-14T00:20:08;97092.25;;;0.74;nan
60479;BME280;46321;48.398;11.754;2024-02-14T00:22:37;97092.84;;;0.64;nan
60479;BME280;46321;48.398;11.754;2024-02-14T00:25:02;97092.72;;;0.66;nan
60479;BME280;46321;48.398;11.754;2024-02-14T00:27:28;97088.47;;;0.65;nan
60479;BME280;46321;48.398;11.754;2024-02-14T00:29:53;97097.03;;;0.67;nan
60479;BME280;46321;48.398;11.754;2024-02-14T00:32:19;97085.75;;;0.66;nan
60479;BME280;46321;48.398;11.754;2024-02-14T00:34:44;97094.00;;;0.73;nan
60479;BME280;46321;48.398;11.754;2024-02-14T00:37:10;97093.91;;;0.75;nan
60479;BME280;46321;48.398;11.754;2024-02-14T00:39:36;97092.31;;;0.72;nan
60479;BME280;46321;48.398;11.754;2024-02-14T00:42:01;97094.13;;;0.72;nan
60479;BME280;46321;48.398;11.754;2024-02-14T00:44:26;97097.25;;;0.77;nan
60479;BME280;46321;48.398;11.754;2024-02-14T00:46:58;97100.59;;;0.79;nan
60479;BME280;46321;48.398;11.754;2024-02-14T00:49:25;97105.63;;;0.82;nan
60479;BME280;46321;48.398;11.754;2024-02-14T00:51:50;97107.66;;;0.77;nan
60479;BME280;46321;48.398;11.754;2024-02-14T00:54:16;97111.41;;;0.73;nan
60479;BME280;46321;48.398;11.754;2024-02-14T00:56:41;97107.66;;;0.77;nan
60479;BME280;46321;48.398;11.754;2024-02-14T00:59:06;97098.94;;;0.78;nan
60479;BME280;46321;48.398;11.754;2024-02-14T01:01:33;97105.63;;;0.82;nan
60479;BME280;46321;48.398;11.754;2024-02-14T01:03:58;97106.53;;;0.81;nan
60479;BME280;46321;48.398;11.754;2024-02-14T01:06:23;97103.94;;;0.81;nan
60479;BME280;46321;48.398;11.754;2024-02-14T01:08:49;97104.88;;;0.80;nan
60479;BME280;46321;48.398;11.754;2024-02-14T01:11:15;97112.50;;;0.83;nan
60479;BME280;46321;48.398;11.754;2024-02-14T01:13:40;97109.53;;;0.75;nan
60479;BME280;46321;48.398;11.754;2024-02-14T01:16:06;97114.03;;;0.73;nan
60479;BME280;46321;48.398;11.754;2024-02-14T01:18:32;97115.72;;;0.74;nan
60479;BME280;46321;48.398;11.754;2024-02-14T01:20:58;97118.50;;;0.71;nan
60479;BME280;46321;48.398;11.754;2024-02-14T01:23:27;97111.31;;;0.74;nan
60479;BME280;46321;48.398;11.754;2024-02-14T01:25:52;97114.97;;;0.72;nan
60479;BME280;46321;48.398;11.754;2024-02-14T01:28:19;97109.50;;;0.62;nan
60479;BME280;46321;48.398;11.754;2024-02-14T01:30:45;97112.53;;;0.68;nan
60479;BME280;46321;48.398;11.754;2024-02-14T01:33:10;97116.06;;;0.67;nan
60479;BME280;46321;48.398;11.754;2024-02-14T01:35:35;97111.59;;;0.70;nan
60479;BME280;46321;48.398;11.754;2024-02-14T01:38:00;97104.16;;;0.78;nan
60479;BME280;46321;48.398;11.754;2024-02-14T01:40:28;97108.22;;;0.82;nan
60479;BME280;46321;48.398;11.754;2024-02-14T01:42:53;97105.41;;;0.85;nan
60479;BME280;46321;48.398;11.754;2024-02-14T01:45:18;97107.63;;;0.91;nan
60479;BME280;46321;48.398;11.754;2024-02-14T01:47:44;97102.59;;;0.88;nan
60479;BME280;46321;48.398;11.754;2024-02-14T01:50:10;97102.31;;;0.93;nan
60479;BME280;46321;48.398;11.754;2024-02-14T01:52:37;97111.72;;;0.96;nan
60479;BME280;46321;48.398;11.754;2024-02-14T01:55:04;97116.53;;;1.02;nan
60479;BME280;46321;48.398;11.754;2024-02-14T01:57:31;97107.78;;;1.03;nan
60479;BME280;46321;48.398;11.754;2024-02-14T01:59:56;97111.31;;;1.02;nan
60479;BME280;46321;48.398;11.754;2024-02-14T02:02:24;97111.91;;;0.93;nan
60479;BME280;46321;48.398;11.754;2024-02-14T02:04:51;97112.34;;;0.99;nan
60479;BME280;46321;48.398;11.754;2024-02-14T02:07:16;97114.50;;;0.93;nan
60479;BME280;46321;48.398;11.754;2024-02-14T02:09:42;97113.19;;;1.00;nan
60479;BME280;46321;48.398;11.754;2024-02-14T02:12:07;97113.50;;;1.08;nan
60479;BME280;46321;48.398;11.754;2024-02-14T02:14:33;97113.94;;;1.15;nan
60479;BME280;46321;48.398;11.754;2024-02-14T02:16:59;97116.16;;;1.21;nan
60479;BME280;46321;48.398;11.754;2024-02-14T02:19:24;97114.38;;;1.22;nan
60479;BME280;46321;48.398;11.754;2024-02-14T02:21:49;97109.91;;;1.24;nan
60479;BME280;46321;48.398;11.754;2024-02-14T02:24:15;97106.06;;;1.30;nan
60479;BME280;46321;48.398;11.754;2024-02-14T02:26:40;97114.31;;;1.36;nan
60479;BME280;46321;48.398;11.754;2024-02-14T02:29:05;97106.38;;;1.38;nan
60479;BME280;46321;48.398;11.754;2024-02-14T02:31:31;97105.34;;;1.41;nan
60479;BME280;46321;48.398;11.754;2024-02-14T02:33:57;97110.56;;;1.41;nan
60479;BME280;46321;48.398;11.754;2024-02-14T02:36:23;97118.91;;;1.46;nan
60479;BME280;46321;48.398;11.754;2024-02-14T02:38:49;97110.16;;;1.47;nan
60479;BME280;46321;48.398;11.754;2024-02-14T02:41:15;97117.56;;;1.53;nan
60479;BME280;46321;48.398;11.754;2024-02-14T02:43:40;97115.81;;;1.54;nan
60479;BME280;46321;48.398;11.754;2024-02-14T02:46:05;97112.34;;;1.53;nan
60479;BME280;46321;48.398;11.754;2024-02-14T02:48:33;97114.13;;;1.53;nan
60479;BME280;46321;48.398;11.754;2024-02-14T02:50:58;97120.19;;;1.53;nan
60479;BME280;46321;48.398;11.754;2024-02-14T02:53:24;97119.25;;;1.54;nan
60479;BME280;46321;48.398;11.754;2024-02-14T02:55:49;97115.81;;;1.54;nan
60479;BME280;46321;48.398;11.754;2024-02-14T02:58:16;97113.81;;;1.57;nan
60479;BME280;46321;48.398;11.754;2024-02-14T03:00:41;97112.16;;;1.56;nan
60479;BME280;46321;48.398;11.754;2024-02-14T03:03:09;97109.56;;;1.56;nan
60479;BME280;46321;48.398;11.754;2024-02-14T03:05:35;97109.31;;;1.59;nan
60479;BME280;46321;48.398;11.754;2024-02-14T03:08:01;97111.84;;;1.61;nan
60479;BME280;46321;48.398;11.754;2024-02-14T03:10:26;97104.09;;;1.59;nan
60479;BME280;46321;48.398;11.754;2024-02-14T03:12:52;97107.38;;;1.63;nan
60479;BME280;46321;48.398;11.754;2024-02-14T03:15:18;97106.41;;;1.64;nan
60479;BME280;46321;48.398;11.754;2024-02-14T03:17:44;97111.75;;;1.63;nan
60479;BME280;46321;48.398;11.754;2024-02-14T03:20:11;97109.13;;;1.63;nan
60479;BME280;46321;48.398;11.754;2024-02-14T03:22:43;97110.59;;;1.67;nan
60479;BME280;46321;48.398;11.754;2024-02-14T03:25:13;97110.47;;;1.68;nan
60479;BME280;46321;48.398;11.754;2024-02-14T03:27:39;97110.91;;;1.75;nan
60479;BME280;46321;48.398;11.754;2024-02-14T03:30:05;97101.59;;;1.84;nan
60479;BME280;46321;48.398;11.754;2024-02-14T03:32:31;97105.06;;;1.85;nan
60479;BME280;46321;48.398;11.754;2024-02-14T03:34:58;97112.69;;;1.75;nan
60479;BME280;46321;48.398;11.754;2024-02-14T03:37:23;97113.50;;;1.62;nan
60479;BME280;46321;48.398;11.754;2024-02-14T03:39:48;97116.97;;;1.63;nan
60479;BME280;46321;48.398;11.754;2024-02-14T03:42:14;97117.38;;;1.56;nan
60479;BME280;46321;48.398;11.754;2024-02-14T03:44:40;97114.97;;;1.53;nan
60479;BME280;46321;48.398;11.754;2024-02-14T03:47:06;97114.84;;;1.42;nan
60479;BME280;46321;48.398;11.754;2024-02-14T03:49:31;97111.72;;;1.36;nan
60479;BME280;46321;48.398;11.754;2024-02-14T03:51:56;97112.22;;;1.29;nan
60479;BME280;46321;48.398;11.754;2024-02-14T03:54:22;97117.63;;;1.25;nan
60479;BME280;46321;48.398;11.754;2024-02-14T03:56:48;97116.16;;;1.21;nan
60479;BME280;46321;48.398;11.754;2024-02-14T03:59:14;97113.94;;;1.15;nan
60479;BME280;46321;48.398;11.754;2024-02-14T04:01:44;97116.00;;;1.10;nan
60479;BME280;46321;48.398;11.754;2024-02-14T04:04:10;97123.03;;;1.09;nan
60479;BME280;46321;48.398;11.754;2024-02-14T04:06:35;97119.69;;;1.07;nan
60479;BME280;46321;48.398;11.754;2024-02-14T04:09:00;97121.63;;;1.03;nan
60479;BME280;46321;48.398;11.754;2024-02-14T04:11:25;97123.00;;;0.96;nan
60479;BME280;46321;48.398;11.754;2024-02-14T04:13:51;97122.34;;;0.93;nan
60479;BME280;46321;48.398;11.754;2024-02-14T04:16:19;97115.47;;;0.91;nan
60479;BME280;46321;48.398;11.754;2024-02-14T04:18:45;97115.19;;;0.82;nan
60479;BME280;46321;48.398;11.754;2024-02-14T04:21:10;97112.16;;;0.75;nan
60479;BME280;46321;48.398;11.754;2024-02-14T04:23:35;97110.50;;;0.74;nan
60479;BME280;46321;48.398;11.754;2024-02-14T04:26:01;97107.66;;;0.77;nan
60479;BME280;46321;48.398;11.754;2024-02-14T04:28:26;97108.19;;;0.69;nan
60479;BME280;46321;48.398;11.754;2024-02-14T04:30:51;97112.53;;;0.68;nan
60479;BME280;46321;48.398;11.754;2024-02-14T04:33:18;97107.97;;;0.72;nan
60479;BME280;46321;48.398;11.754;2024-02-14T04:35:43;97111.31;;;0.74;nan
60479;BME280;46321;48.398;11.754;2024-02-14T04:38:09;97108.69;;;0.74;nan
60479;BME280;46321;48.398;11.754;2024-02-14T04:40:34;97112.50;;;0.83;nan
60479;BME280;46321;48.398;11.754;2024-02-14T04:43:00;97112.13;;;0.89;nan
60479;BME280;46321;48.398;11.754;2024-02-14T04:45:25;97113.47;;;0.95;nan
60479;BME280;46321;48.398;11.754;2024-02-14T04:47:50;97104.41;;;1.01;nan
60479;BME280;46321;48.398;11.754;2024-02-14T04:50:16;97105.81;;;1.07;nan
60479;BME280;46321;48.398;11.754;2024-02-14T04:52:41;97104.47;;;1.14;nan
60479;BME280;46321;48.398;11.754;2024-02-14T04:55:06;97113.09;;;1.14;nan
60479;BME280;46321;48.398;11.754;2024-02-14T04:57:32;97113.47;;;1.23;nan
60479;BME280;46321;48.398;11.754;2024-02-14T05:00:00;97113.91;;;1.30;nan
60479;BME280;46321;48.398;11.754;2024-02-14T05:02:25;97103.91;;;1.36;nan
60479;BME280;46321;48.398;11.754;2024-02-14T05:04:53;97113.38;;;1.37;nan
60479;BME280;46321;48.398;11.754;2024-02-14T05:07:19;97112.66;;;1.35;nan
60479;BME280;46321;48.398;11.754;2024-02-14T05:09:44;97103.25;;;1.46;nan
60479;BME280;46321;48.398;11.754;2024-02-14T05:12:10;97112.25;;;1.55;nan
60479;BME280;46321;48.398;11.754;2024-02-14T05:14:38;97111.84;;;1.61;nan
60479;BME280;46321;48.398;11.754;2024-02-14T05:17:03;97111.75;;;1.63;nan
60479;BME280;46321;48.398;11.754;2024-02-14T05:19:29;97108.28;;;1.62;nan
60479;BME280;46321;48.398;11.754;2024-02-14T05:21:55;97106.41;;;1.64;nan
60479;BME280;46321;48.398;11.754;2024-02-14T05:24:20;97108.09;;;1.65;nan
60479;BME280;46321;48.398;11.754;2024-02-14T05:26:45;97111.44;;;1.67;nan
60479;BME280;46321;48.398;11.754;2024-02-14T05:29:11;97119.78;;;1.73;nan
60479;BME280;46321;48.398;11.754;2024-02-14T05:31:46;97112.16;;;1.82;nan
60479;BME280;46321;48.398;11.754;2024-02-14T05:34:13;97108.94;;;1.92;nan
60479;BME280;46321;48.398;11.754;2024-02-14T05:36:39;97108.69;;;1.95;nan
60479;BME280;46321;48.398;11.754;2024-02-14T05:39:04;97101.50;;;1.99;nan
60479;BME280;46321;48.398;11.754;2024-02-14T05:41:31;97104.00;;;1.87;nan
60479;BME280;46321;48.398;11.754;2024-02-14T05:43:58;97100.38;;;1.90;nan
60479;BME280;46321;48.398;11.754;2024-02-14T05:46:23;97096.19;;;1.87;nan
60479;BME280;46321;48.398;11.754;2024-02-14T05:48:49;97102.03;;;1.91;nan
60479;BME280;46321;48.398;11.754;2024-02-14T05:51:14;97094.72;;;1.96;nan
60479;BME280;46321;48.398;11.754;2024-02-14T05:53:40;97106.72;;;1.99;nan
60479;BME280;46321;48.398;11.754;2024-02-14T05:56:05;97110.59;;;2.06;nan
60479;BME280;46321;48.398;11.754;2024-02-14T05:58:30;97107.44;;;2.14;nan
60479;BME280;46321;48.398;11.754;2024-02-14T06:00:57;97112.88;;;2.11;nan
60479;BME280;46321;48.398;11.754;2024-02-14T06:03:22;97123.09;;;2.14;nan
60479;BME280;46321;48.398;11.754;2024-02-14T06:05:48;97127.28;;;2.16;nan
60479;BME280;46321;48.398;11.754;2024-02-14T06:08:13;97134.28;;;2.16;nan
60479;BME280;46321;48.398;11.754;2024-02-14T06:10:38;97128.13;;;2.17;nan
60479;BME280;46321;48.398;11.754;2024-02-14T06:13:04;97129.59;;;2.21;nan
60479;BME280;46321;48.398;11.754;2024-02-14T06:15:30;97130.19;;;2.25;nan
60479;BME280;46321;48.398;11.754;2024-02-14T06:17:55;97136.16;;;2.27;nan
60479;BME280;46321;48.398;11.754;2024-02-14T06:20:20;97131.34;;;2.34;nan
60479;BME280;46321;48.398;11.754;2024-02-14T06:22:46;97132.91;;;2.36;nan
60479;BME280;46321;48.398;11.754;2024-02-14T06:25:11;97137.09;;;2.39;nan
60479;BME280;46321;48.398;11.754;2024-02-14T06:27:36;97140.63;;;2.38;nan
60479;BME280;46321;48.398;11.754;2024-02-14T06:30:03;97139.16;;;2.34;nan
60479;BME280;46321;48.398;11.754;2024-02-14T06:32:28;97145.75;;;2.39;nan
60479;BME280;46321;48.398;11.754;2024-02-14T06:34:53;97145.53;;;2.43;nan
60479;BME280;46321;48.398;11.754;2024-02-14T06:37:19;97149.59;;;2.47;nan
60479;BME280;46321;48.398;11.754;2024-02-14T06:39:44;97150.84;;;2.54;nan
60479;BME280;46321;48.398;11.754;2024-02-14T06:42:09;97149.69;;;2.58;nan
60479;BME280;46321;48.398;11.754;2024-02-14T06:44:34;97153.84;;;2.61;nan
60479;BME280;46321;48.398;11.754;2024-02-14T06:47:00;97148.44;;;2.64;nan
60479;BME280;46321;48.398;11.754;2024-02-14T06:49:25;97145.56;;;2.67;nan
60479;BME280;46321;48.398;11.754;2024-02-14T06:51:50;97147.59;;;2.63;nan
60479;BME280;46321;48.398;11.754;2024-02-14T06:54:15;97153.41;;;2.67;nan
60479;BME280;46321;48.398;11.754;2024-02-14T06:56:42;97147.75;;;2.73;nan
60479;BME280;46321;48.398;11.754;2024-02-14T06:59:07;97145.97;;;2.74;nan
60479;BME280;46321;48.398;11.754;2024-02-14T07:01:32;97141.16;;;2.81;nan
60479;BME280;46321;48.398;11.754;2024-02-14T07:03:58;97146.88;;;2.86;nan
60479;BME280;46321;48.398;11.754;2024-02-14T07:06:23;97144.03;;;2.89;nan
60479;BME280;46321;48.398;11.754;2024-02-14T07:08:49;97151.22;;;2.98;nan
60479;BME280;46321;48.398;11.754;2024-02-14T07:11:16;97142.44;;;3.00;nan
60479;BME280;46321;48.398;11.754;2024-02-14T07:13:42;97141.47;;;3.01;nan
60479;BME280;46321;48.398;11.754;2024-02-14T07:16:07;97148.41;;;3.02;nan
60479;BME280;46321;48.398;11.754;2024-02-14T07:18:34;97156.50;;;3.10;nan
60479;BME280;46321;48.398;11.754;2024-02-14T07:20:59;97162.97;;;3.17;nan
60479;BME280;46321;48.398;11.754;2024-02-14T07:23:24;97166.84;;;3.25;nan
60479;BME280;46321;48.398;11.754;2024-02-14T07:25:51;97177.78;;;3.30;nan
60479;BME280;46321;48.398;11.754;2024-02-14T07:28:16;97178.41;;;3.34;nan
60479;BME280;46321;48.398;11.754;2024-02-14T07:30:42;97181.75;;;3.36;nan
60479;BME280;46321;48.398;11.754;2024-02-14T07:33:08;97182.94;;;3.43;nan
60479;BME280;46321;48.398;11.754;2024-02-14T07:35:33;97191.47;;;3.58;nan
60479;BME280;46321;48.398;11.754;2024-02-14T07:37:58;97182.31;;;3.64;nan
60479;BME280;46321;48.398;11.754;2024-02-14T07:40:23;97185.22;;;3.84;nan
60479;BME280;46321;48.398;11.754;2024-02-14T07:42:49;97186.81;;;3.98;nan
60479;BME280;46321;48.398;11.754;2024-02-14T07:45:14;97191.28;;;4.43;nan
60479;BME280;46321;48.398;11.754;2024-02-14T07:47:40;97191.84;;;4.70;nan
60479;BME280;46321;48.398;11.754;2024-02-14T07:50:09;97188.72;;;4.88;nan
60479;BME280;46321;48.398;11.754;2024-02-14T07:52:34;97191.19;;;5.01;nan
60479;BME280;46321;48.398;11.754;2024-02-14T07:54:59;97190.53;;;5.20;nan
60479;BME280;46321;48.398;11.754;2024-02-14T07:57:25;97192.19;;;5.33;nan
60479;BME280;46321;48.398;11.754;2024-02-14T07:59:51;97193.94;;;5.44;nan
60479;BME280;46321;48.398;11.754;2024-02-14T08:02:17;97197.84;;;5.49;nan
60479;BME280;46321;48.398;11.754;2024-02-14T08:04:43;97194.19;;;5.41;nan
60479;BME280;46321;48.398;11.754;2024-02-14T08:07:09;97194.94;;;5.31;nan
60479;BME280;46321;48.398;11.754;2024-02-14T08:09:35;97190.03;;;5.26;nan
60479;BME280;46321;48.398;11.754;2024-02-14T08:12:00;97191.25;;;5.22;nan
60479;BME280;46321;48.398;11.754;2024-02-14T08:14:25;97194.25;;;5.18;nan
60479;BME280;46321;48.398;11.754;2024-02-14T08:16:52;97195.47;;;5.13;nan
60479;BME280;46321;48.398;11.754;2024-02-14T08:19:17;97197.81;;;5.28;nan
60479;BME280;46321;48.398;11.754;2024-02-14T08:21:43;97205.19;;;5.34;nan
60479;BME280;46321;48.398;11.754;2024-02-14T08:24:08;97205.69;;;5.28;nan
60479;BME280;46321;48.398;11.754;2024-02-14T08:26:34;97205.44;;;5.31;nan
60479;BME280;46321;48.398;11.754;2024-02-14T08:28:59;97208.31;;;5.28;nan
60479;BME280;46321;48.398;11.754;2024-02-14T08:31:25;97206.53;;;5.29;nan
60479;BME280;46321;48.398;11.754;2024-02-14T08:33:50;97205.94;;;5.25;nan
60479;BME280;46321;48.398;11.754;2024-02-14T08:36:15;97198.91;;;5.25;nan
60479;BME280;46321;48.398;11.754;2024-02-14T08:38:42;97199.81;;;5.36;nan
60479;BME280;46321;48.398;11.754;2024-02-14T08:41:07;97201.19;;;5.52;nan
60479;BME280;46321;48.398;11.754;2024-02-14T08:43:33;97204.03;;;5.60;nan
60479;BME280;46321;48.398;11.754;2024-02-14T08:45:59;97196.53;;;5.55;nan
60479;BME280;46321;48.398;11.754;2024-02-14T08:48:24;97210.22;;;5.59;nan
60479;BME280;46321;48.398;11.754;2024-02-14T08:50:52;97208.78;;;5.66;nan
60479;BME280;46321;48.398;11.754;2024-02-14T08:53:17;97206.81;;;5.80;nan
60479;BME280;46321;48.398;11.754;2024-02-14T08:55:42;97203.84;;;5.94;nan
60479;BME280;46321;48.398;11.754;2024-02-14T08:58:08;97200.97;;;6.19;nan
60479;BME280;46321;48.398;11.754;2024-02-14T09:00:37;97206.72;;;6.34;nan
60479;BME280;46321;48.398;11.754;2024-02-14T09:03:04;97205.56;;;6.48;nan
60479;BME280;46321;48.398;11.754;2024-02-14T09:05:29;97201.47;;;6.66;nan
60479;BME280;46321;48.398;11.754;2024-02-14T09:07:54;97210.78;;;6.70;nan
60479;BME280;46321;48.398;11.754;2024-02-14T09:10:20;97202.06;;;6.69;nan
60479;BME280;46321;48.398;11.754;2024-02-14T09:12:45;97205.38;;;6.71;nan
60479;BME280;46321;48.398;11.754;2024-02-14T09:15:11;97205.69;;;6.78;nan
60479;BME280;46321;48.398;11.754;2024-02-14T09:17:37;97207.34;;;6.79;nan
60479;BME280;46321;48.398;11.754;2024-02-14T09:20:04;97210.31;;;6.96;nan
60479;BME280;46321;48.398;11.754;2024-02-14T09:22:31;97201.91;;;7.22;nan
60479;BME280;46321;48.398;11.754;2024-02-14T09:24:58;97195.41;;;7.76;nan
60479;BME280;46321;48.398;11.754;2024-02-14T09:27:23;97197.06;;;7.87;nan
60479;BME280;46321;48.398;11.754;2024-02-14T09:29:48;97202.31;;;8.07;nan
60479;BME280;46321;48.398;11.754;2024-02-14T09:32:14;97205.25;;;8.04;nan
60479;BME280;46321;48.398;11.754;2024-02-14T09:34:39;97197.56;;;8.20;nan
60479;BME280;46321;48.398;11.754;2024-02-14T09:37:04;97195.38;;;8.06;nan
60479;BME280;46321;48.398;11.754;2024-02-14T09:39:32;97193.22;;;8.39;nan
60479;BME280;46321;48.398;11.754;2024-02-14T09:41:59;97189.72;;;9.05;nan
60479;BME280;46321;48.398;11.754;2024-02-14T09:44:27;97189.38;;;9.36;nan
60479;BME280;46321;48.398;11.754;2024-02-14T09:46:56;97196.88;;;9.41;nan
60479;BME280;46321;48.398;11.754;2024-02-14T09:49:23;97192.63;;;9.30;nan
60479;BME280;46321;48.398;11.754;2024-02-14T09:51:50;97198.06;;;9.10;nan
60479;BME280;46321;48.398;11.754;2024-02-14T09:54:17;97187.59;;;8.90;nan
60479;BME280;46321;48.398;11.754;2024-02-14T09:56:48;97189.16;;;8.83;nan
60479;BME280;46321;48.398;11.754;2024-02-14T09:59:15;97191.81;;;8.83;nan
60479;BME280;46321;48.398;11.754;2024-02-14T10:01:41;97191.69;;;8.85;nan
60479;BME280;46321;48.398;11.754;2024-02-14T10:04:08;97187.88;;;8.87;nan
60479;BME280;46321;48.398;11.754;2024-02-14T10:06:33;97180.31;;;9.02;nan
60479;BME280;46321;48.398;11.754;2024-02-14T10:08:58;97186.00;;;9.26;nan
60479;BME280;46321;48.398;11.754;2024-02-14T10:11:24;97174.47;;;9.45;nan
60479;BME280;46321;48.398;11.754;2024-02-14T10:13:52;97182.38;;;9.64;nan
60479;BME280;46321;48.398;11.754;2024-02-14T10:16:19;97180.09;;;9.69;nan
60479;BME280;46321;48.398;11.754;2024-02-14T10:18:45;97176.28;;;10.70;nan
60479;BME280;46321;48.398;11.754;2024-02-14T10:21:17;97168.88;;;11.59;nan
60479;BME280;46321;48.398;11.754;2024-02-14T10:23:44;97167.84;;;13.15;nan
60479;BME280;46321;48.398;11.754;2024-02-14T10:26:12;97162.81;;;14.91;nan
60479;BME280;46321;48.398;11.754;2024-02-14T10:28:43;97161.72;;;16.81;nan
60479;BME280;46321;48.398;11.754;2024-02-14T10:31:10;97159.28;;;18.10;nan
60479;BME280;46321;48.398;11.754;2024-02-14T10:33:36;97151.88;;;20.47;nan
60479;BME280;46321;48.398;11.754;2024-02-14T10:36:01;97149.56;;;20.51;nan
60479;BME280;46321;48.398;11.754;2024-02-14T10:38:30;97144.03;;;22.60;nan
60479;BME280;46321;48.398;11.754;2024-02-14T10:40:58;97146.03;;;23.36;nan
60479;BME280;46321;48.398;11.754;2024-02-14T10:43:25;97132.50;;;25.52;nan
60479;BME280;46321;48.398;11.754;2024-02-14T10:45:52;97135.78;;;23.84;nan
60479;BME280;46321;48.398;11.754;2024-02-14T10:48:22;97140.66;;;22.53;nan
60479;BME280;46321;48.398;11.754;2024-02-14T10:50:52;97143.50;;;22.22;nan
60479;BME280;46321;48.398;11.754;2024-02-14T10:53:18;97141.50;;;25.30;nan
60479;BME280;46321;48.398;11.754;2024-02-14T10:55:46;97127.28;;;30.45;nan
60479;BME280;46321;48.398;11.754;2024-02-14T10:58:14;97121.97;;;34.55;nan
60479;BME280;46321;48.398;11.754;2024-02-14T11:00:41;97120.34;;;35.03;nan
60479;BME280;46321;48.398;11.754;2024-02-14T11:03:07;97110.94;;;36.32;nan
60479;BME280;46321;48.398;11.754;2024-02-14T11:05:46;97104.13;;;38.73;nan
60479;BME280;46321;48.398;11.754;2024-02-14T11:08:23;97099.38;;;38.74;nan
60479;BME280;46321;48.398;11.754;2024-02-14T11:10:59;97091.75;;;39.49;nan
60479;BME280;46321;48.398;11.754;2024-02-14T11:13:31;97105.88;;;37.81;nan
60479;BME280;46321;48.398;11.754;2024-02-14T11:15:59;97100.88;;;38.21;nan
60479;BME280;46321;48.398;11.754;2024-02-14T11:18:26;97097.25;;;40.11;nan
60479;BME280;46321;48.398;11.754;2024-02-14T11:20:52;97103.00;;;40.50;nan
60479;BME280;46321;48.398;11.754;2024-02-14T11:23:21;97095.47;;;39.86;nan
60479;BME280;46321;48.398;11.754;2024-02-14T11:25:47;97089.22;;;40.54;nan
60479;BME280;46321;48.398;11.754;2024-02-14T11:28:23;97082.19;;;37.25;nan
60479;BME280;46321;48.398;11.754;2024-02-14T11:30:49;97077.75;;;39.75;nan
60479;BME280;46321;48.398;11.754;2024-02-14T11:33:20;97065.50;;;41.52;nan
60479;BME280;46321;48.398;11.754;2024-02-14T11:35:47;97071.78;;;41.69;nan
60479;BME280;46321;48.398;11.754;2024-02-14T11:38:14;97068.97;;;42.40;nan
60479;BME280;46321;48.398;11.754;2024-02-14T11:40:39;97065.06;;;38.75;nan
60479;BME280;46321;48.398;11.754;2024-02-14T11:43:16;97067.91;;;34.91;nan
60479;BME280;46321;48.398;11.754;2024-02-14T11:45:45;97059.47;;;33.56;nan
60479;BME280;46321;48.398;11.754;2024-02-14T11:48:12;97062.44;;;26.58;nan
60479;BME280;46321;48.398;11.754;2024-02-14T11:50:41;97069.06;;;23.50;nan
60479;BME280;46321;48.398;11.754;2024-02-14T11:53:08;97072.06;;;22.37;nan
60479;BME280;46321;48.398;11.754;2024-02-14T11:55:39;97062.38;;;20.02;nan
60479;BME280;46321;48.398;11.754;2024-02-14T11:58:12;97080.22;;;18.67;nan
60479;BME280;46321;48.398;11.754;2024-02-14T12:00:39;97074.34;;;18.45;nan
60479;BME280;46321;48.398;11.754;2024-02-14T12:03:22;97074.66;;;17.61;nan
60479;BME280;46321;48.398;11.754;2024-02-14T12:05:50;97067.88;;;17.25;nan
60479;BME280;46321;48.398;11.754;2024-02-14T12:22:58;97075.38;;;15.01;nan
60479;BME280;46321;48.398;11.754;2024-02-14T12:25:23;97075.88;;;14.74;nan
60479;BME280;46321;48.398;11.754;2024-02-14T12:27:52;97074.22;;;14.88;nan
60479;BME280;46321;48.398;11.754;2024-02-14T12:30:18;97069.00;;;14.80;nan
60479;BME280;46321;48.398;11.754;2024-02-14T12:32:57;97064.84;;;14.77;nan
60479;BME280;46321;48.398;11.754;2024-02-14T12:35:23;97076.78;;;14.82;nan
60479;BME280;46321;48.398;11.754;2024-02-14T12:37:48;97070.22;;;15.21;nan
60479;BME280;46321;48.398;11.754;2024-02-14T12:40:13;97072.84;;;15.37;nan
60479;BME280;46321;48.398;11.754;2024-02-14T12:42:38;97069.38;;;15.14;nan
60479;BME280;46321;48.398;11.754;2024-02-14T12:45:04;97061.16;;;15.16;nan
60479;BME280;46321;48.398;11.754;2024-02-14T12:47:29;97070.13;;;15.30;nan
60479;BME280;46321;48.398;11.754;2024-02-14T12:49:58;97064.91;;;14.99;nan
60479;BME280;46321;48.398;11.754;2024-02-14T12:52:24;97067.06;;;15.33;nan
60479;BME280;46321;48.398;11.754;2024-02-14T12:54:50;97072.63;;;15.60;nan
60479;BME280;46321;48.398;11.754;2024-02-14T12:57:15;97068.91;;;15.32;nan
60479;BME280;46321;48.398;11.754;2024-02-14T12:59:40;97068.53;;;14.92;nan
60479;BME280;46321;48.398;11.754;2024-02-14T13:02:06;97062.94;;;14.86;nan
60479;BME280;46321;48.398;11.754;2024-02-14T13:04:32;97070.06;;;14.49;nan
60479;BME280;46321;48.398;11.754;2024-02-14T13:06:57;97068.69;;;14.07;nan
60479;BME280;46321;48.398;11.754;2024-02-14T13:09:22;97080.28;;;14.00;nan
60479;BME280;46321;48.398;11.754;2024-02-14T13:11:48;97069.44;;;13.86;nan
60479;BME280;46321;48.398;11.754;2024-02-14T13:14:13;97062.00;;;13.81;nan
60479;BME280;46321;48.398;11.754;2024-02-14T13:16:40;97067.03;;;13.76;nan
60479;BME280;46321;48.398;11.754;2024-02-14T13:19:05;97075.56;;;13.71;nan
60479;BME280;46321;48.398;11.754;2024-02-14T13:21:30;97068.31;;;13.80;nan
60479;BME280;46321;48.398;11.754;2024-02-14T13:23:56;97056.91;;;13.56;nan
60479;BME280;46321;48.398;11.754;2024-02-14T13:26:22;97071.50;;;13.60;nan
60479;BME280;46321;48.398;11.754;2024-02-14T13:28:48;97072.63;;;13.66;nan